Skip Navigation Links Skip Navigation Links

Current Weather

Heathrow, London

For information only: do not use for flight planning or navigation.
Latest weather
Observation time Thursday, June 21, 2018 10:20 PM BST
Local time Thursday, June 21, 2018 10:52 PM BST
Flight conditions Visual Meteorological Conditions
Winds
Wind direction North-Northwest (340°)
Winds variable from 300° to 20°
Wind speed 6 mph
Visibility 6.2 mi.
Sky condition
Ceiling unlimited
Temperature 59°F
Dewpoint 41°F
Altimeter 30.39 in.Hg
Derived measurements
Relative humidity 51%
Density altitude -401 ft.
Remarks
Corrected report.
Fully automated report.
No significant changes expected in the next two hours.
METAR COR EGLL 212120Z AUTO 34005KT 300V020 9999 NCD 15/05 Q1029 NOSIG

Settings

Location code

InnerDrive.Weather 4.0.6615.0 Release CLR 4.0.30319.42000
Copyright ©2018 Inner Drive Technology. All rights reserved. Portions Copyright ©1986-2018 David Braverman.

Find weather

Site navigation


Skip Navigation Links

Place info

Page info

PayPal - The safer, easier way to pay online!

Return home.

Copyright ©2018 Inner Drive Technology. Purveyors of fine, hand-crafted computer software. Page printed 2018-06-21T21:52:51 UTC.